createdAt,value
2023-03-11T00:00:28.848Z,-1.95
2023-03-11T00:03:01.607Z,-2.11
2023-03-11T00:05:34.354Z,-1.99
2023-03-11T00:08:05.840Z,-2.21
2023-03-11T00:10:37.848Z,-2.10
2023-03-11T00:13:11.421Z,-2.14
2023-03-11T00:15:42.429Z,-2.21
2023-03-11T00:18:15.622Z,-2.06
2023-03-11T00:20:48.408Z,-1.97
2023-03-11T00:23:19.344Z,-1.77
2023-03-11T00:25:50.292Z,-1.88
2023-03-11T00:28:23.125Z,-1.86
2023-03-11T00:30:53.861Z,-1.84
2023-03-11T00:33:24.460Z,-1.80
2023-03-11T00:35:55.012Z,-1.84
2023-03-11T00:38:26.064Z,-1.76
2023-03-11T00:40:56.763Z,-1.69
2023-03-11T00:43:28.767Z,-1.60
2023-03-11T00:45:59.313Z,-1.47
2023-03-11T00:48:30.118Z,-1.45
2023-03-11T00:51:01.429Z,-1.29
2023-03-11T00:53:31.993Z,-1.13
2023-03-11T00:56:02.442Z,-1.00
2023-03-11T00:58:34.563Z,-0.97
2023-03-11T01:01:09.528Z,-1.12
2023-03-11T01:03:40.771Z,-1.11
2023-03-11T01:06:11.669Z,-0.94
2023-03-11T01:08:42.274Z,-0.87
2023-03-11T01:11:12.812Z,-0.91
2023-03-11T01:13:44.966Z,-1.61
2023-03-11T01:16:15.599Z,-1.12
2023-03-11T01:18:46.254Z,-1.17
2023-03-11T01:21:17.230Z,-1.09
2023-03-11T01:23:47.986Z,-1.11
2023-03-11T01:26:18.655Z,-0.91
2023-03-11T01:29:03.451Z,-0.81
2023-03-11T01:31:36.943Z,-0.50
2023-03-11T01:34:07.567Z,-0.44
2023-03-11T01:36:38.100Z,-0.29
2023-03-11T01:39:08.707Z,-0.19
2023-03-11T01:41:39.431Z,-0.24
2023-03-11T01:44:14.457Z,-0.23
2023-03-11T01:47:17.084Z,-0.40
2023-03-11T01:49:47.620Z,-0.44
2023-03-11T01:52:22.129Z,-0.14
2023-03-11T01:54:53.065Z,0.24
2023-03-11T01:57:24.986Z,0.48
2023-03-11T02:00:01.073Z,0.22
2023-03-11T02:02:35.688Z,0.23
2023-03-11T02:05:06.526Z,0.21
2023-03-11T02:07:37.468Z,0.22
2023-03-11T02:10:09.064Z,0.20
2023-03-11T02:12:40.527Z,0.01
2023-03-11T02:15:14.647Z,-0.27
2023-03-11T02:17:46.658Z,-0.28
2023-03-11T02:20:27.338Z,-0.37
2023-03-11T02:22:59.026Z,-0.39
2023-03-11T02:25:38.272Z,-0.34
2023-03-11T02:28:14.297Z,-0.30
2023-03-11T02:30:47.010Z,-0.46
2023-03-11T02:33:18.235Z,-0.34
2023-03-11T02:35:48.822Z,-0.26
2023-03-11T02:38:20.112Z,-0.08
2023-03-11T02:41:00.683Z,0.08
2023-03-11T02:43:41.354Z,-0.07
2023-03-11T02:46:14.728Z,-0.19
2023-03-11T02:48:46.323Z,-0.15
2023-03-11T02:51:17.157Z,0.07
2023-03-11T02:53:51.087Z,0.17
2023-03-11T02:56:21.665Z,0.28
2023-03-11T02:58:54.275Z,0.27
2023-03-11T03:01:25.063Z,0.10
2023-03-11T03:03:55.920Z,0.20
2023-03-11T03:06:27.185Z,0.04
2023-03-11T03:08:58.185Z,0.23
2023-03-11T03:11:28.853Z,0.17
2023-03-11T03:14:02.885Z,0.61
2023-03-11T03:16:33.563Z,0.50
2023-03-11T03:19:04.225Z,0.32
2023-03-11T03:21:34.723Z,0.76
2023-03-11T03:24:05.296Z,0.48
2023-03-11T03:26:35.807Z,0.33
2023-03-11T03:29:08.602Z,0.30
2023-03-11T03:31:39.327Z,0.03
2023-03-11T03:34:10.134Z,-0.02
2023-03-11T03:36:41.337Z,-0.13
2023-03-11T03:39:11.930Z,0.09
2023-03-11T03:41:42.483Z,0.05
2023-03-11T03:44:14.720Z,0.01
2023-03-11T03:46:45.350Z,-0.11
2023-03-11T03:49:15.964Z,-0.15
2023-03-11T03:51:46.592Z,-0.16
2023-03-11T03:54:17.657Z,-0.06
2023-03-11T03:56:48.494Z,-0.15
2023-03-11T03:59:20.695Z,-0.02
2023-03-11T04:01:51.367Z,0.15
2023-03-11T04:04:22.278Z,0.19
2023-03-11T04:06:53.202Z,0.00
2023-03-11T04:09:23.790Z,0.35
2023-03-11T04:11:54.521Z,0.42
2023-03-11T04:14:26.887Z,0.55
2023-03-11T04:16:58.655Z,0.47
2023-03-11T04:19:29.263Z,0.55
2023-03-11T04:21:59.808Z,0.45
2023-03-11T04:24:30.649Z,0.38
2023-03-11T04:27:01.249Z,0.21
2023-03-11T04:29:33.720Z,0.13
2023-03-11T04:32:04.622Z,0.18
2023-03-11T04:34:35.150Z,0.41
2023-03-11T04:37:05.896Z,0.66
2023-03-11T04:39:36.644Z,0.57
2023-03-11T04:42:07.529Z,0.78
2023-03-11T04:44:40.382Z,0.76
2023-03-11T04:47:11.001Z,0.91
2023-03-11T04:49:41.902Z,1.00
2023-03-11T04:52:12.538Z,0.94
2023-03-11T04:54:43.610Z,1.13
2023-03-11T04:57:14.222Z,1.16
2023-03-11T04:59:46.329Z,1.18
2023-03-11T05:02:16.979Z,1.21
2023-03-11T05:04:47.956Z,1.24
2023-03-11T05:07:18.640Z,1.14
2023-03-11T05:09:49.366Z,1.05
2023-03-11T05:12:20.213Z,1.12
2023-03-11T05:14:52.645Z,1.09
2023-03-11T05:17:23.341Z,1.12
2023-03-11T05:19:54.553Z,0.63
2023-03-11T05:22:25.214Z,1.28
2023-03-11T05:24:55.747Z,1.28
2023-03-11T05:27:27.104Z,1.19
2023-03-11T05:29:59.345Z,1.29
2023-03-11T05:32:29.996Z,1.05
2023-03-11T05:35:00.628Z,1.26
2023-03-11T05:37:33.682Z,1.17
2023-03-11T05:40:06.756Z,1.07
2023-03-11T05:42:37.407Z,1.25
2023-03-11T05:45:10.797Z,1.08
2023-03-11T05:47:43.215Z,1.09
2023-03-11T05:50:15.090Z,0.83
2023-03-11T05:52:45.615Z,1.01
2023-03-11T05:55:16.252Z,1.01
2023-03-11T05:57:46.880Z,1.07
2023-03-11T06:00:24.073Z,0.96
2023-03-11T06:02:54.660Z,0.97
2023-03-11T06:05:25.375Z,0.98
2023-03-11T06:07:56.064Z,0.81
2023-03-11T06:10:26.692Z,0.94
2023-03-11T06:12:57.198Z,0.86
2023-03-11T06:15:29.342Z,0.67
2023-03-11T06:18:00.257Z,0.63
2023-03-11T06:20:30.882Z,0.54
2023-03-11T06:23:01.536Z,0.43
2023-03-11T06:25:32.076Z,0.34
2023-03-11T06:28:02.759Z,0.27
2023-03-11T06:30:34.876Z,0.09
2023-03-11T06:33:05.536Z,-0.04
2023-03-11T06:35:36.208Z,-0.17
2023-03-11T06:38:06.837Z,-0.51
2023-03-11T06:40:37.556Z,-0.29
2023-03-11T06:43:08.102Z,-0.31
2023-03-11T06:45:40.247Z,-0.39
2023-03-11T06:48:10.779Z,-0.33
2023-03-11T06:50:41.317Z,-0.26
2023-03-11T06:53:12.022Z,-0.32
2023-03-11T06:55:42.657Z,-0.31
2023-03-11T06:58:13.195Z,-0.36
2023-03-11T07:00:45.519Z,-0.76
2023-03-11T07:03:16.079Z,-0.35
2023-03-11T07:05:46.616Z,-0.29
2023-03-11T07:08:17.310Z,-0.26
2023-03-11T07:10:49.124Z,-0.30
2023-03-11T07:13:20.221Z,-0.25
2023-03-11T07:15:52.305Z,-0.26
2023-03-11T07:18:22.946Z,-0.30
2023-03-11T07:20:53.602Z,-0.43
2023-03-11T07:23:24.798Z,-0.71
2023-03-11T07:25:56.438Z,-0.68
2023-03-11T07:28:27.793Z,-0.81
2023-03-11T07:31:00.082Z,-0.84
2023-03-11T07:33:32.171Z,-0.90
2023-03-11T07:36:08.891Z,-0.91
2023-03-11T07:38:40.957Z,-1.12
2023-03-11T07:41:12.944Z,-1.07
2023-03-11T07:43:44.807Z,-1.01
2023-03-11T07:46:19.894Z,-1.02
2023-03-11T07:48:50.531Z,-0.97
2023-03-11T07:51:23.157Z,-0.97
2023-03-11T07:53:55.694Z,-1.51
2023-03-11T07:56:29.949Z,-1.12
2023-03-11T07:59:02.464Z,-1.23
2023-03-11T08:01:37.610Z,-1.33
2023-03-11T08:04:09.830Z,-1.30
2023-03-11T08:06:45.168Z,-1.47
2023-03-11T08:09:16.007Z,-1.34
2023-03-11T08:11:49.776Z,-1.32
2023-03-11T08:14:20.667Z,-1.31
2023-03-11T08:16:58.328Z,-1.28
2023-03-11T08:19:28.871Z,-1.25
2023-03-11T08:21:59.562Z,-1.21
2023-03-11T08:24:30.887Z,-1.28
2023-03-11T08:27:01.806Z,-1.41
2023-03-11T08:29:32.692Z,-1.44
2023-03-11T08:32:06.411Z,-1.50
2023-03-11T08:34:36.928Z,-1.55
2023-03-11T08:37:07.974Z,-1.43
2023-03-11T08:39:38.619Z,-1.20
2023-03-11T08:42:09.520Z,-1.08
2023-03-11T08:44:41.742Z,-1.15
2023-03-11T08:47:16.637Z,-1.31
2023-03-11T08:49:50.134Z,-1.49
2023-03-11T08:52:20.656Z,-1.49
2023-03-11T08:54:51.926Z,-1.43
2023-03-11T08:57:25.385Z,-1.39
2023-03-11T08:59:56.701Z,-1.44
2023-03-11T09:02:29.636Z,-1.52
2023-03-11T09:05:03.527Z,-1.48
2023-03-11T09:07:34.890Z,-1.40
2023-03-11T09:10:05.767Z,-1.31
2023-03-11T09:12:38.957Z,-1.28
2023-03-11T09:15:10.660Z,-1.34
2023-03-11T09:17:42.978Z,-1.26
2023-03-11T09:20:20.620Z,-1.61
2023-03-11T09:22:55.145Z,-1.33
2023-03-11T09:25:25.956Z,-1.27
2023-03-11T09:27:56.978Z,-1.19
2023-03-11T09:31:55.310Z,-1.14
2023-03-11T09:34:30.720Z,-1.04
2023-03-11T09:37:06.873Z,-1.05
2023-03-11T09:39:50.325Z,-1.06
2023-03-11T09:42:28.510Z,-1.05
2023-03-11T09:45:06.567Z,-1.04
2023-03-11T09:47:52.156Z,-1.03
2023-03-11T09:50:33.111Z,-1.00
2023-03-11T09:53:19.990Z,-1.03
2023-03-11T09:55:57.809Z,-1.06
2023-03-11T09:58:43.489Z,-1.28
2023-03-11T10:01:23.826Z,-0.99
2023-03-11T10:04:04.905Z,-1.35
2023-03-11T10:06:37.031Z,-1.01
2023-03-11T10:09:27.158Z,-0.93
2023-03-11T10:12:15.463Z,-0.89
2023-03-11T10:15:01.299Z,-0.91
2023-03-11T10:18:01.686Z,-0.91
2023-03-11T10:20:39.876Z,-0.91
2023-03-11T10:23:24.754Z,-0.90
2023-03-11T10:26:05.415Z,-0.97
2023-03-11T10:29:01.171Z,-0.98
2023-03-11T10:31:37.829Z,-1.02
2023-03-11T10:34:22.611Z,-1.33
2023-03-11T10:37:08.015Z,-1.03
2023-03-11T10:39:44.189Z,-1.05
2023-03-11T10:42:21.887Z,-0.90
2023-03-11T10:44:55.400Z,-0.93
2023-03-11T10:47:28.048Z,-0.99
2023-03-11T10:49:58.574Z,-0.89
2023-03-11T10:52:32.028Z,-0.78
2023-03-11T10:55:06.728Z,-0.73
2023-03-11T10:57:44.666Z,-0.75
2023-03-11T11:00:32.848Z,-0.96
2023-03-11T11:03:06.010Z,-0.79
2023-03-11T11:05:38.748Z,-0.79
2023-03-11T11:08:12.848Z,-0.70
2023-03-11T11:10:54.809Z,-0.70
2023-03-11T11:13:30.921Z,-0.78
2023-03-11T11:16:03.969Z,-0.81
2023-03-11T11:18:45.683Z,-0.83
2023-03-11T11:21:19.744Z,-1.18
2023-03-11T11:23:53.841Z,-0.72
2023-03-11T11:26:28.032Z,-1.00
2023-03-11T11:29:10.643Z,-0.88
2023-03-11T11:31:45.564Z,-0.91
2023-03-11T11:34:36.830Z,-0.82
2023-03-11T11:37:09.105Z,-0.76
2023-03-11T11:39:54.387Z,-0.66
2023-03-11T11:42:29.352Z,-0.58
2023-03-11T11:45:05.339Z,-0.55
2023-03-11T11:47:38.766Z,-0.52
2023-03-11T11:50:19.057Z,-0.54
2023-03-11T11:52:55.628Z,-0.54
2023-03-11T11:55:31.627Z,-0.69
2023-03-11T11:58:08.170Z,-0.46
2023-03-11T12:00:48.545Z,-0.45
2023-03-11T12:03:54.684Z,-0.40
2023-03-11T12:06:36.228Z,-0.50
2023-03-11T12:09:17.243Z,-0.49
2023-03-11T12:11:54.901Z,-0.44
2023-03-11T12:14:31.445Z,-1.01
2023-03-11T12:17:06.017Z,-0.50
2023-03-11T12:19:53.947Z,-0.46
2023-03-11T12:22:58.213Z,-0.45
2023-03-11T12:25:39.606Z,-0.43
2023-03-11T12:28:22.498Z,-0.45
2023-03-11T12:30:58.060Z,-0.53
2023-03-11T12:33:35.106Z,-0.59
2023-03-11T12:36:06.999Z,-0.60
2023-03-11T12:38:39.393Z,-0.64
2023-03-11T12:41:29.686Z,-0.63
2023-03-11T12:44:23.897Z,-0.58
2023-03-11T12:47:21.394Z,-0.64
2023-03-11T12:49:55.610Z,-1.13
2023-03-11T12:52:29.021Z,-0.54
2023-03-11T12:55:36.867Z,-0.50
2023-03-11T12:58:54.712Z,-0.50
2023-03-11T13:01:40.171Z,-0.48
2023-03-11T13:04:39.510Z,-0.50
2023-03-11T13:07:44.612Z,-0.51
2023-03-11T13:10:22.921Z,-0.53
2023-03-11T13:12:55.025Z,-0.58
2023-03-11T13:15:43.609Z,-0.56
2023-03-11T13:18:26.152Z,-0.72
2023-03-11T13:21:02.685Z,-0.88
2023-03-11T13:23:41.354Z,-0.68
2023-03-11T13:26:45.295Z,-0.73
2023-03-11T13:29:46.488Z,-0.64
2023-03-11T13:32:52.519Z,-0.63
2023-03-11T13:35:50.783Z,-0.62
2023-03-11T13:38:49.100Z,-0.66
2023-03-11T13:41:25.247Z,-0.68
2023-03-11T13:44:14.024Z,-0.65
2023-03-11T13:46:51.425Z,-0.67
2023-03-11T13:49:36.135Z,-0.73
2023-03-11T13:52:09.991Z,-0.83
2023-03-11T13:54:48.193Z,-0.70
2023-03-11T13:57:30.151Z,-0.89
2023-03-11T14:00:22.205Z,-0.68
2023-03-11T14:03:29.724Z,-0.66
2023-03-11T14:06:27.192Z,-1.01
2023-03-11T14:09:30.979Z,-0.67
2023-03-11T14:12:26.428Z,-0.72
2023-03-11T14:21:50.722Z,-0.58
2023-03-11T14:24:33.910Z,-0.69
2023-03-11T14:27:12.064Z,-0.56
2023-03-11T14:29:47.011Z,-0.69
2023-03-11T14:32:58.788Z,-0.70
2023-03-11T14:35:39.418Z,-0.75
2023-03-11T14:38:51.424Z,-0.84
2023-03-11T14:41:42.186Z,-0.84
2023-03-11T14:44:17.545Z,-0.87
2023-03-11T14:47:07.683Z,-0.81
2023-03-11T14:49:37.955Z,-0.78
2023-03-11T14:52:22.523Z,-0.80
2023-03-11T14:55:00.834Z,-0.80
2023-03-11T14:57:58.927Z,-0.97
2023-03-11T15:04:36.568Z,-0.74
2023-03-11T15:07:28.933Z,-0.75
2023-03-11T15:10:02.545Z,-0.76
2023-03-11T15:12:40.387Z,-0.92
2023-03-11T15:15:45.301Z,-0.72
2023-03-11T15:18:40.554Z,-0.84
2023-03-11T15:21:32.657Z,-0.68
2023-03-11T15:24:09.074Z,-0.72
2023-03-11T15:26:59.678Z,-0.67
2023-03-11T15:29:32.531Z,-0.62
2023-03-11T15:32:09.719Z,-0.58
2023-03-11T15:34:42.419Z,-0.63
2023-03-11T15:37:28.545Z,-0.55
2023-03-11T15:40:15.968Z,-0.63
2023-03-11T15:42:53.343Z,-0.66
2023-03-11T15:45:25.855Z,-0.70
2023-03-11T15:48:00.763Z,-0.69
2023-03-11T15:50:52.467Z,-0.66
2023-03-11T15:53:29.062Z,-0.66
2023-03-11T15:56:07.922Z,-0.61
2023-03-11T15:58:42.359Z,-0.49
2023-03-11T16:01:13.535Z,-0.49
2023-03-11T16:03:44.831Z,-0.56
2023-03-11T16:06:16.832Z,-0.54
2023-03-11T16:08:50.508Z,-0.65
2023-03-11T16:11:22.233Z,-0.55
2023-03-11T16:13:59.986Z,-0.60
2023-03-11T16:16:35.248Z,-0.57
2023-03-11T16:19:09.355Z,-0.67
2023-03-11T16:21:56.269Z,-0.76
2023-03-11T16:24:34.117Z,-0.79
2023-03-11T16:27:10.010Z,-0.72
2023-03-11T16:29:46.756Z,-0.73
2023-03-11T16:32:23.822Z,-0.71
2023-03-11T16:35:00.623Z,-0.68
2023-03-11T16:37:35.606Z,-0.66
2023-03-11T16:40:10.383Z,-0.64
2023-03-11T16:43:19.746Z,-0.57
2023-03-11T16:45:57.676Z,-0.66
2023-03-11T16:48:37.065Z,-0.72
2023-03-11T16:54:58.418Z,-0.63
2023-03-11T16:57:29.518Z,-0.71
2023-03-11T17:00:01.815Z,-0.63
2023-03-11T17:02:34.977Z,-0.74
2023-03-11T17:05:08.820Z,-0.90
2023-03-11T17:07:46.081Z,-0.93
2023-03-11T17:10:22.669Z,-1.02
2023-03-11T17:12:55.676Z,-1.23
2023-03-11T17:15:27.967Z,-0.96
2023-03-11T17:18:15.904Z,-1.18
2023-03-11T17:20:51.854Z,-0.90
2023-03-11T17:23:25.902Z,-0.92
2023-03-11T17:26:02.267Z,-0.99
2023-03-11T17:28:34.830Z,-0.76
2023-03-11T17:31:12.074Z,-0.71
2023-03-11T17:33:45.282Z,-0.65
2023-03-11T17:36:20.830Z,-0.64
2023-03-11T17:38:56.636Z,-0.59
2023-03-11T17:41:27.542Z,-0.58
2023-03-11T17:43:59.081Z,-0.59
2023-03-11T17:46:33.670Z,-0.62
2023-03-11T17:49:06.774Z,-0.60
2023-03-11T17:51:38.236Z,-0.61
2023-03-11T17:54:16.883Z,-0.58
2023-03-11T17:56:48.059Z,-0.61
2023-03-11T17:59:20.052Z,-0.51
2023-03-11T18:02:00.042Z,-0.49
2023-03-11T18:04:34.801Z,-0.48
2023-03-11T18:07:09.434Z,-0.46
2023-03-11T18:09:40.120Z,-0.38
2023-03-11T18:12:11.376Z,-0.35
2023-03-11T18:14:43.883Z,-0.34
2023-03-11T18:17:27.121Z,-0.31
2023-03-11T18:20:01.770Z,-0.36
2023-03-11T18:26:23.100Z,-0.39
2023-03-11T18:29:01.862Z,-0.40
2023-03-11T18:31:36.755Z,-0.57
2023-03-11T18:34:14.354Z,-0.35
2023-03-11T18:40:50.806Z,-0.29
2023-03-11T18:43:23.552Z,-0.39
2023-03-11T18:45:57.601Z,-0.43
2023-03-11T18:48:35.578Z,-0.44
2023-03-11T18:51:10.225Z,-0.36
2023-03-11T18:53:43.007Z,-0.37
2023-03-11T18:56:22.494Z,-0.47
2023-03-11T18:58:53.788Z,-0.50
2023-03-11T19:01:26.515Z,-0.38
2023-03-11T19:03:58.232Z,-0.32
2023-03-11T19:06:30.381Z,-0.35
2023-03-11T19:09:09.512Z,-0.25
2023-03-11T19:11:41.677Z,-0.25
2023-03-11T19:14:12.194Z,-0.28
2023-03-11T19:16:42.963Z,-0.25
2023-03-11T19:19:13.705Z,-0.25
2023-03-11T19:21:44.249Z,-0.27
2023-03-11T19:24:14.714Z,-0.27
2023-03-11T19:26:46.941Z,-0.31
2023-03-11T19:29:17.886Z,-0.28
2023-03-11T19:31:48.536Z,-0.25
2023-03-11T19:34:19.120Z,-0.25
2023-03-11T19:36:49.662Z,-0.24
2023-03-11T19:39:20.282Z,-0.24
2023-03-11T19:41:56.796Z,-0.24
2023-03-11T19:44:27.467Z,-0.19
2023-03-11T19:46:58.090Z,-0.19
2023-03-11T19:49:28.643Z,-0.21
2023-03-11T19:51:59.704Z,-0.25
2023-03-11T19:54:30.375Z,-0.26
2023-03-11T19:57:02.882Z,-0.26
2023-03-11T19:59:36.177Z,-0.26
2023-03-11T20:02:07.243Z,-0.30
2023-03-11T20:04:37.952Z,-0.35
2023-03-11T20:07:09.184Z,-0.69
2023-03-11T20:09:39.678Z,-0.31
2023-03-11T20:12:12.354Z,-0.30
2023-03-11T20:14:44.422Z,-0.28
2023-03-11T20:17:15.577Z,-0.29
2023-03-11T20:19:46.317Z,-0.31
2023-03-11T20:22:16.860Z,-0.32
2023-03-11T20:24:47.418Z,-0.35
2023-03-11T20:27:19.637Z,-0.39
2023-03-11T20:29:50.135Z,-0.38
2023-03-11T20:32:20.700Z,-0.41
2023-03-11T20:34:54.285Z,-0.45
2023-03-11T20:37:24.898Z,-0.40
2023-03-11T20:39:55.449Z,-0.36
2023-03-11T20:42:27.629Z,-0.34
2023-03-11T20:44:58.312Z,-0.31
2023-03-11T20:47:28.881Z,-0.33
2023-03-11T20:49:59.352Z,-0.29
2023-03-11T20:52:35.231Z,-0.34
2023-03-11T20:55:05.745Z,-0.36
2023-03-11T20:57:38.081Z,-0.36
2023-03-11T21:00:12.168Z,-0.35
2023-03-11T21:02:44.247Z,-0.41
2023-03-11T21:05:15.508Z,-0.41
2023-03-11T21:07:46.098Z,-0.36
2023-03-11T21:10:17.083Z,-0.37
2023-03-11T21:12:49.410Z,-0.41
2023-03-11T21:15:20.327Z,-0.43
2023-03-11T21:17:50.937Z,-0.45
2023-03-11T21:20:21.741Z,-0.41
2023-03-11T21:22:52.484Z,-0.38
2023-03-11T21:25:23.103Z,-0.37
2023-03-11T21:27:55.477Z,-0.34
2023-03-11T21:30:26.006Z,-0.30
2023-03-11T21:32:56.650Z,-0.21
2023-03-11T21:35:27.500Z,-0.15
2023-03-11T21:37:58.186Z,-0.08
2023-03-11T21:40:29.291Z,-0.02
2023-03-11T21:43:01.551Z,-0.03
2023-03-11T21:45:32.254Z,-0.03
2023-03-11T21:48:07.431Z,0.00
2023-03-11T21:50:38.797Z,-0.10
2023-03-11T21:53:09.577Z,0.03
2023-03-11T21:55:43.604Z,0.03
2023-03-11T21:58:15.958Z,0.04
2023-03-11T22:00:46.924Z,0.01
2023-03-11T22:03:17.765Z,0.03
2023-03-11T22:05:48.560Z,0.11
2023-03-11T22:08:19.151Z,0.18
2023-03-11T22:10:49.712Z,0.23
2023-03-11T22:13:22.093Z,0.39
2023-03-11T22:15:53.005Z,0.49
2023-03-11T22:18:23.962Z,0.59
2023-03-11T22:20:54.553Z,0.74
2023-03-11T22:23:25.160Z,0.77
2023-03-11T22:25:55.731Z,0.74
2023-03-11T22:28:28.154Z,0.75
2023-03-11T22:30:58.699Z,0.85
2023-03-11T22:33:29.375Z,0.86
2023-03-11T22:36:03.003Z,0.95
2023-03-11T22:38:34.986Z,1.07
2023-03-11T22:41:08.493Z,1.01
2023-03-11T22:43:41.551Z,1.08
2023-03-11T22:46:12.060Z,1.20
2023-03-11T22:48:42.530Z,1.24
2023-03-11T22:51:13.847Z,1.18
2023-03-11T22:53:44.475Z,1.14
2023-03-11T22:56:16.793Z,0.80
2023-03-11T22:58:49.503Z,1.16
2023-03-11T23:01:20.296Z,1.15
2023-03-11T23:03:50.924Z,1.19
2023-03-11T23:06:22.988Z,1.21
2023-03-11T23:08:53.751Z,1.18
2023-03-11T23:11:24.693Z,1.17
2023-03-11T23:13:57.666Z,1.27
2023-03-11T23:16:28.485Z,1.37
2023-03-11T23:18:59.743Z,1.34
2023-03-11T23:21:31.777Z,1.36
2023-03-11T23:24:03.843Z,1.38
2023-03-11T23:26:35.295Z,1.44
2023-03-11T23:29:08.093Z,0.79
2023-03-11T23:31:38.930Z,1.47
2023-03-11T23:34:09.514Z,1.59
2023-03-11T23:36:40.134Z,1.81
2023-03-11T23:39:10.696Z,1.87
2023-03-11T23:41:41.200Z,1.89
2023-03-11T23:44:13.427Z,1.90
2023-03-11T23:46:43.930Z,1.63
2023-03-11T23:49:14.504Z,1.79
2023-03-11T23:51:45.121Z,1.85
2023-03-11T23:54:15.764Z,1.89
2023-03-11T23:56:46.987Z,1.77
2023-03-11T23:59:19.159Z,1.87
